logo
Search for airport 
image banner adimage banner adimage banner ad
image banner ad

MMEAG - El Aguila Ranch

Located in Guerrero, Mexico

ICAO - , IATA -

Data provided by Airmate  

General information

Coordinates: N27°59'8" W100°13'32"
Elevation is 898 feet MSL.
Magnetic variation is 4° East
View others Airports in Coahuila

Operational data

Special qualification required
Current time UTC:
Current local time:
Weather at : KCZT - Dimmit County ( 71 km )
METAR: KCZT 180755Z AUTO 10003KT 10SM OVC013 23/22 A2987 RMK AO2
View NOTAMs / SUP AIP / TFR affecting this airport [VIEW]
Communications frequencies: [VIEW]

Runways:

RWY identifierQFULength (ft)Width (ft)SurfaceLDA (ft)
35354°490573DIRT
17174°490573DIRT

Airport contact information

Address: Guerrero Mexico

Satellite view of MMEAG